createdAt,value
2018-07-16T00:00:20.268Z,50.01
2018-07-16T00:00:51.444Z,50.94
2018-07-16T00:01:22.661Z,50.03
2018-07-16T00:01:53.894Z,50.69
2018-07-16T00:02:25.082Z,49.94
2018-07-16T00:02:56.270Z,49.76
2018-07-16T00:03:27.455Z,50.05
2018-07-16T00:03:58.628Z,50.81
2018-07-16T00:04:29.796Z,50.25
2018-07-16T00:05:01.037Z,50.35
2018-07-16T00:05:32.225Z,50.78
2018-07-16T00:06:03.407Z,49.94
2018-07-16T00:06:34.673Z,49.98
2018-07-16T00:07:05.910Z,50.63
2018-07-16T00:07:37.093Z,49.88
2018-07-16T00:08:08.316Z,50.00
2018-07-16T00:08:39.557Z,50.04
2018-07-16T00:09:10.802Z,50.33
2018-07-16T00:09:41.985Z,50.47
2018-07-16T00:10:13.208Z,49.93
2018-07-16T00:10:44.396Z,49.77
2018-07-16T00:11:15.672Z,50.38
2018-07-16T00:11:46.864Z,49.79
2018-07-16T00:12:18.049Z,50.17
2018-07-16T00:12:49.224Z,49.49
2018-07-16T00:13:20.492Z,50.20
2018-07-16T00:13:51.676Z,49.12
2018-07-16T00:14:22.897Z,49.22
2018-07-16T00:14:54.131Z,49.25
2018-07-16T00:15:25.320Z,50.18
2018-07-16T00:15:56.558Z,49.04
2018-07-16T00:16:27.739Z,49.09
2018-07-16T00:16:58.923Z,49.10
2018-07-16T00:17:30.149Z,48.96
2018-07-16T00:18:01.381Z,49.58
2018-07-16T00:18:32.604Z,49.23
2018-07-16T00:19:03.788Z,49.64
2018-07-16T00:19:34.961Z,49.39
2018-07-16T00:20:06.132Z,49.43
2018-07-16T00:20:37.305Z,49.81
2018-07-16T00:21:08.472Z,49.18
2018-07-16T00:21:39.654Z,49.56
2018-07-16T00:22:10.941Z,49.98
2018-07-16T00:22:42.115Z,49.99
2018-07-16T00:23:13.310Z,50.14
2018-07-16T00:23:44.542Z,50.38
2018-07-16T00:24:15.720Z,49.67
2018-07-16T00:24:46.952Z,50.30
2018-07-16T00:25:18.185Z,50.23
2018-07-16T00:25:49.375Z,49.84
2018-07-16T00:26:20.552Z,50.10
2018-07-16T00:26:51.761Z,50.60
2018-07-16T00:27:22.988Z,49.89
2018-07-16T00:27:54.172Z,50.08
2018-07-16T00:28:25.352Z,50.46
2018-07-16T00:28:56.590Z,49.55
2018-07-16T00:29:27.822Z,50.02
2018-07-16T00:29:59.046Z,49.38
2018-07-16T00:30:30.228Z,49.25
2018-07-16T00:31:01.400Z,49.22
2018-07-16T00:31:32.586Z,49.87
2018-07-16T00:32:03.812Z,48.83
2018-07-16T00:32:34.989Z,48.57
2018-07-16T00:33:06.222Z,49.24
2018-07-16T00:33:37.414Z,48.92
2018-07-16T00:34:09.589Z,48.76
2018-07-16T00:34:41.580Z,49.35
2018-07-16T00:35:12.844Z,49.59
2018-07-16T00:35:44.035Z,49.16
2018-07-16T00:36:15.225Z,49.52
2018-07-16T00:36:46.406Z,49.09
2018-07-16T00:37:17.670Z,49.45
2018-07-16T00:37:48.870Z,48.85
2018-07-16T00:38:20.105Z,48.96
2018-07-16T00:38:51.309Z,49.80
2018-07-16T00:39:22.568Z,48.98
2018-07-16T00:39:53.831Z,49.89
2018-07-16T00:40:25.061Z,49.93
2018-07-16T00:40:56.282Z,49.29
2018-07-16T00:41:27.452Z,49.16
2018-07-16T00:41:58.697Z,49.32
2018-07-16T00:42:29.949Z,49.14
2018-07-16T00:43:01.141Z,48.90
2018-07-16T00:43:32.369Z,49.63
2018-07-16T00:44:03.563Z,49.35
2018-07-16T00:44:34.749Z,49.48
2018-07-16T00:45:05.965Z,49.32
2018-07-16T00:45:37.160Z,49.49
2018-07-16T00:46:08.377Z,49.58
2018-07-16T00:46:39.821Z,49.39
2018-07-16T00:47:11.006Z,49.98
2018-07-16T00:47:42.184Z,49.21
2018-07-16T00:48:13.395Z,49.47
2018-07-16T00:48:44.665Z,49.62
2018-07-16T00:49:15.854Z,49.10
2018-07-16T00:49:47.079Z,48.96
2018-07-16T00:50:18.295Z,49.76
2018-07-16T00:50:49.480Z,48.99
2018-07-16T00:51:20.659Z,49.62
2018-07-16T00:51:52.426Z,49.62
2018-07-16T00:52:23.653Z,48.92
2018-07-16T00:52:54.913Z,49.00
2018-07-16T00:53:26.129Z,49.60
2018-07-16T00:53:58.182Z,48.96
2018-07-16T00:54:30.585Z,49.81
2018-07-16T00:55:02.175Z,49.08
2018-07-16T00:55:33.364Z,50.15
2018-07-16T00:56:04.557Z,50.00
2018-07-16T00:56:35.800Z,50.11
2018-07-16T00:57:06.974Z,49.71
2018-07-16T00:57:38.196Z,50.18
2018-07-16T00:58:09.979Z,49.92
2018-07-16T00:58:41.268Z,49.48
2018-07-16T00:59:12.452Z,50.45
2018-07-16T00:59:43.629Z,49.58
2018-07-16T01:00:14.866Z,50.20
2018-07-16T01:00:47.952Z,49.46
2018-07-16T01:02:20.849Z,50.26
2018-07-16T01:02:52.100Z,50.50
2018-07-16T01:03:24.147Z,50.65
2018-07-16T01:03:55.384Z,50.46
2018-07-16T01:04:29.950Z,49.89
2018-07-16T01:05:01.186Z,50.56
2018-07-16T01:05:32.391Z,49.75
2018-07-16T01:06:03.645Z,50.62
2018-07-16T01:06:35.629Z,49.83
2018-07-16T01:07:06.864Z,50.07
2018-07-16T01:07:39.163Z,50.45
2018-07-16T01:08:10.340Z,49.77
2018-07-16T01:08:41.516Z,50.30
2018-07-16T01:09:12.741Z,49.89
2018-07-16T01:09:43.944Z,49.80
2018-07-16T01:10:15.145Z,49.87
2018-07-16T01:10:46.390Z,50.22
2018-07-16T01:11:18.208Z,50.23
2018-07-16T01:11:49.436Z,50.42
2018-07-16T01:12:20.693Z,50.27
2018-07-16T01:12:51.875Z,50.88
2018-07-16T01:13:23.132Z,51.07
2018-07-16T01:13:54.368Z,50.79
2018-07-16T01:14:25.578Z,50.65
2018-07-16T01:14:57.506Z,50.08
2018-07-16T01:15:29.240Z,51.07
2018-07-16T01:16:01.037Z,51.21
2018-07-16T01:16:32.216Z,50.98
2018-07-16T01:17:03.442Z,51.13
2018-07-16T01:17:34.653Z,50.58
2018-07-16T01:18:05.857Z,51.05
2018-07-16T01:18:37.041Z,50.42
2018-07-16T01:19:08.329Z,51.11
2018-07-16T01:19:39.580Z,50.81
2018-07-16T01:20:10.772Z,50.66
2018-07-16T01:20:42.040Z,51.05
2018-07-16T01:21:13.232Z,51.05
2018-07-16T01:21:44.740Z,50.66
2018-07-16T01:22:16.018Z,50.97
2018-07-16T01:22:47.266Z,50.41
2018-07-16T01:23:18.480Z,51.21
2018-07-16T01:23:49.729Z,51.16
2018-07-16T01:24:20.979Z,50.37
2018-07-16T01:24:52.176Z,50.74
2018-07-16T01:25:24.507Z,50.78
2018-07-16T01:25:55.686Z,50.67
2018-07-16T01:26:26.892Z,50.26
2018-07-16T01:26:58.165Z,50.42
2018-07-16T01:27:29.380Z,50.64
2018-07-16T01:28:00.616Z,50.23
2018-07-16T01:28:32.809Z,49.66
2018-07-16T01:29:10.333Z,50.76
2018-07-16T01:29:42.581Z,50.12
2018-07-16T01:30:53.961Z,50.08
2018-07-16T01:31:25.575Z,49.64
2018-07-16T01:33:17.157Z,50.78
2018-07-16T01:33:48.454Z,50.86
2018-07-16T01:34:19.652Z,51.14
2018-07-16T01:34:50.829Z,51.04
2018-07-16T01:35:22.037Z,51.28
2018-07-16T01:35:53.270Z,50.95
2018-07-16T01:36:24.468Z,50.79
2018-07-16T01:36:55.696Z,51.20
2018-07-16T01:37:26.870Z,50.96
2018-07-16T01:37:58.059Z,50.60
2018-07-16T01:38:29.286Z,50.73
2018-07-16T01:39:00.476Z,50.38
2018-07-16T01:39:32.882Z,50.74
2018-07-16T01:40:04.069Z,51.17
2018-07-16T01:40:35.303Z,51.05
2018-07-16T01:41:06.589Z,50.93
2018-07-16T01:41:37.761Z,50.19
2018-07-16T01:42:08.936Z,50.09
2018-07-16T01:42:40.234Z,50.79
2018-07-16T01:43:11.492Z,50.93
2018-07-16T01:43:44.136Z,50.58
2018-07-16T01:44:15.311Z,50.37
2018-07-16T01:44:46.520Z,50.75
2018-07-16T01:45:18.321Z,50.82
2018-07-16T01:45:49.536Z,50.11
2018-07-16T01:46:20.737Z,50.63
2018-07-16T01:46:51.909Z,50.34
2018-07-16T01:47:23.102Z,50.86
2018-07-16T01:47:54.308Z,50.41
2018-07-16T01:48:25.485Z,50.60
2018-07-16T01:48:56.748Z,51.02
2018-07-16T01:49:28.204Z,50.56
2018-07-16T01:49:59.381Z,50.95
2018-07-16T01:50:31.227Z,50.80
2018-07-16T01:51:02.453Z,50.64
2018-07-16T01:51:33.630Z,51.39
2018-07-16T01:52:04.846Z,51.50
2018-07-16T01:52:36.073Z,51.02
2018-07-16T01:53:07.254Z,51.13
2018-07-16T01:53:38.448Z,51.56
2018-07-16T01:54:09.668Z,51.50
2018-07-16T01:54:40.912Z,51.40
2018-07-16T01:55:12.705Z,51.61
2018-07-16T01:55:43.924Z,51.14
2018-07-16T01:56:15.161Z,51.97
2018-07-16T01:56:46.342Z,51.90
2018-07-16T01:57:17.572Z,51.39
2018-07-16T01:57:48.745Z,51.07
2018-07-16T01:58:19.921Z,51.23
2018-07-16T01:58:51.101Z,51.79
2018-07-16T01:59:22.325Z,52.01
2018-07-16T01:59:53.506Z,51.93
2018-07-16T02:00:24.729Z,51.81
2018-07-16T02:00:55.965Z,51.51
2018-07-16T02:01:27.158Z,52.14
2018-07-16T02:01:58.391Z,51.25
2018-07-16T02:02:29.616Z,51.46
2018-07-16T02:03:00.837Z,52.19
2018-07-16T02:03:32.012Z,51.29
2018-07-16T02:04:03.233Z,51.76
2018-07-16T02:04:34.408Z,51.97
2018-07-16T02:05:05.595Z,51.55
2018-07-16T02:05:37.382Z,51.87
2018-07-16T02:06:09.468Z,51.37
2018-07-16T02:06:40.646Z,51.88
2018-07-16T02:07:11.821Z,51.79
2018-07-16T02:07:43.001Z,52.06
2018-07-16T02:08:14.192Z,51.88
2018-07-16T02:08:45.364Z,52.26
2018-07-16T02:09:17.296Z,52.30
2018-07-16T02:09:48.681Z,51.69
2018-07-16T02:10:19.896Z,51.70
2018-07-16T02:10:51.118Z,51.65
2018-07-16T02:11:22.384Z,52.43
2018-07-16T02:11:53.548Z,51.76
2018-07-16T02:12:24.798Z,51.23
2018-07-16T02:12:56.033Z,52.31
2018-07-16T02:13:27.219Z,51.57
2018-07-16T02:13:59.169Z,51.93
2018-07-16T02:14:30.356Z,52.08
2018-07-16T02:15:02.193Z,52.22
2018-07-16T02:15:33.372Z,51.58
2018-07-16T02:16:04.553Z,52.50
2018-07-16T02:16:35.774Z,52.41
2018-07-16T02:17:06.963Z,52.54
2018-07-16T02:17:38.198Z,51.75
2018-07-16T02:18:09.437Z,52.12
2018-07-16T02:18:40.680Z,52.24
2018-07-16T02:19:11.860Z,51.74
2018-07-16T02:19:43.041Z,51.87
2018-07-16T02:20:14.249Z,51.91
2018-07-16T02:20:46.239Z,52.59
2018-07-16T02:21:18.569Z,51.93
2018-07-16T02:21:49.785Z,52.14
2018-07-16T02:22:20.996Z,52.57
2018-07-16T02:22:52.202Z,51.83
2018-07-16T02:23:23.468Z,52.39
2018-07-16T02:23:54.684Z,51.60
2018-07-16T02:24:25.985Z,51.79
2018-07-16T02:24:57.832Z,51.72
2018-07-16T02:25:29.018Z,51.83
2018-07-16T02:26:00.241Z,51.73
2018-07-16T02:26:31.461Z,52.19
2018-07-16T02:27:02.648Z,51.60
2018-07-16T02:27:34.972Z,51.48
2018-07-16T02:28:06.245Z,52.25
2018-07-16T02:28:37.433Z,51.82
2018-07-16T02:29:08.669Z,51.67
2018-07-16T02:29:39.921Z,51.60
2018-07-16T02:30:11.331Z,52.60
2018-07-16T02:30:42.614Z,51.87
2018-07-16T02:31:13.802Z,52.65
2018-07-16T02:31:45.075Z,52.75
2018-07-16T02:32:16.253Z,51.93
2018-07-16T02:32:47.428Z,52.18
2018-07-16T02:33:18.605Z,52.84
2018-07-16T02:33:49.815Z,52.97
2018-07-16T02:34:21.049Z,53.19
2018-07-16T02:34:52.308Z,53.19
2018-07-16T02:35:24.266Z,53.15
2018-07-16T02:35:55.440Z,52.36
2018-07-16T02:36:26.627Z,52.73
2018-07-16T02:36:57.846Z,53.09
2018-07-16T02:37:29.073Z,52.50
2018-07-16T02:38:00.326Z,52.71
2018-07-16T02:38:31.516Z,52.50
2018-07-16T02:39:02.745Z,53.00
2018-07-16T02:39:33.933Z,52.89
2018-07-16T02:40:05.116Z,52.31
2018-07-16T02:40:36.352Z,53.07
2018-07-16T02:41:07.537Z,53.15
2018-07-16T02:41:38.758Z,52.50
2018-07-16T02:42:10.589Z,52.51
2018-07-16T02:42:41.781Z,53.09
2018-07-16T02:43:13.006Z,52.50
2018-07-16T02:43:44.240Z,52.78
2018-07-16T02:44:15.489Z,52.70
2018-07-16T02:44:46.666Z,52.50
2018-07-16T02:45:17.845Z,52.78
2018-07-16T02:45:49.020Z,52.74
2018-07-16T02:46:20.185Z,53.21
2018-07-16T02:46:51.369Z,53.00
2018-07-16T02:47:22.552Z,52.60
2018-07-16T02:47:53.738Z,52.87
2018-07-16T02:48:25.004Z,52.57
2018-07-16T02:48:56.180Z,52.15
2018-07-16T02:49:27.380Z,51.87
2018-07-16T02:49:58.548Z,52.20
2018-07-16T02:50:29.782Z,52.78
2018-07-16T02:51:00.956Z,52.13
2018-07-16T02:51:32.148Z,52.32
2018-07-16T02:52:03.316Z,53.17
2018-07-16T02:52:34.546Z,53.15
2018-07-16T02:53:05.774Z,52.56
2018-07-16T02:53:37.052Z,53.25
2018-07-16T02:54:08.253Z,52.74
2018-07-16T02:54:39.477Z,52.83
2018-07-16T02:55:10.710Z,52.88
2018-07-16T02:55:41.913Z,52.75
2018-07-16T02:56:13.152Z,52.70
2018-07-16T02:56:44.458Z,53.01
2018-07-16T02:57:15.644Z,52.62
2018-07-16T02:57:46.871Z,52.76
2018-07-16T02:58:18.101Z,53.46
2018-07-16T02:58:49.328Z,52.74
2018-07-16T02:59:20.501Z,52.70
2018-07-16T02:59:51.681Z,52.84
2018-07-16T03:00:22.918Z,52.85
2018-07-16T03:00:54.768Z,53.47
2018-07-16T03:01:25.989Z,52.49
2018-07-16T03:01:57.162Z,52.64
2018-07-16T03:02:28.428Z,53.04
2018-07-16T03:02:59.587Z,52.70
2018-07-16T03:03:30.775Z,52.54
2018-07-16T03:04:01.966Z,53.34
2018-07-16T03:04:33.154Z,52.87
2018-07-16T03:05:04.376Z,52.79
2018-07-16T03:05:35.558Z,52.17
2018-07-16T03:06:06.792Z,52.11
2018-07-16T03:06:38.025Z,52.14
2018-07-16T03:07:09.261Z,52.37
2018-07-16T03:07:40.443Z,52.81
2018-07-16T03:08:11.681Z,51.93
2018-07-16T03:08:42.865Z,52.13
2018-07-16T03:09:14.040Z,52.34
2018-07-16T03:09:45.204Z,52.96
2018-07-16T03:10:16.415Z,52.41
2018-07-16T03:10:47.629Z,52.59
2018-07-16T03:11:18.805Z,52.71
2018-07-16T03:11:49.982Z,53.18
2018-07-16T03:12:21.205Z,53.26
2018-07-16T03:12:52.389Z,52.25
2018-07-16T03:13:23.559Z,52.40
2018-07-16T03:13:54.742Z,52.85
2018-07-16T03:14:25.964Z,52.94
2018-07-16T03:14:57.168Z,52.28
2018-07-16T03:15:28.383Z,52.28
2018-07-16T03:15:59.563Z,52.71
2018-07-16T03:16:30.741Z,52.36
2018-07-16T03:17:01.912Z,52.40
2018-07-16T03:17:33.081Z,52.83
2018-07-16T03:18:04.414Z,52.44
2018-07-16T03:18:35.557Z,52.50
2018-07-16T03:19:06.806Z,53.02
2018-07-16T03:19:39.009Z,53.20
2018-07-16T03:20:10.191Z,53.16
2018-07-16T03:20:41.378Z,53.17
2018-07-16T03:21:12.553Z,52.95
2018-07-16T03:21:43.825Z,52.90
2018-07-16T03:22:15.064Z,52.05
2018-07-16T03:22:46.293Z,52.39
2018-07-16T03:23:17.482Z,51.92
2018-07-16T03:23:48.708Z,52.31
2018-07-16T03:24:19.916Z,51.48
2018-07-16T03:24:51.712Z,51.34
2018-07-16T03:25:22.988Z,50.91
2018-07-16T03:25:54.222Z,50.84
2018-07-16T03:26:25.926Z,51.35
2018-07-16T03:26:57.145Z,51.57
2018-07-16T03:27:28.329Z,50.80
2018-07-16T03:27:59.513Z,51.23
2018-07-16T03:28:30.781Z,50.29
2018-07-16T03:29:02.025Z,50.23
2018-07-16T03:29:33.263Z,50.09
2018-07-16T03:30:05.129Z,50.20
2018-07-16T03:30:36.326Z,50.58
2018-07-16T03:31:07.496Z,49.84
2018-07-16T03:31:38.692Z,50.42
2018-07-16T03:32:10.688Z,50.45
2018-07-16T03:32:41.909Z,49.65
2018-07-16T03:33:13.103Z,50.36
2018-07-16T03:33:44.283Z,49.36
2018-07-16T03:34:16.603Z,49.99
2018-07-16T03:34:47.839Z,49.94
2018-07-16T03:35:19.021Z,50.01
2018-07-16T03:35:50.200Z,50.23
2018-07-16T03:36:21.376Z,50.03
2018-07-16T03:36:52.613Z,49.56
2018-07-16T03:37:23.897Z,50.17
2018-07-16T03:37:55.084Z,50.01
2018-07-16T03:38:26.260Z,49.07
2018-07-16T03:38:57.492Z,49.01
2018-07-16T03:39:28.701Z,48.85
2018-07-16T03:39:59.946Z,49.33
2018-07-16T03:40:31.189Z,49.05
2018-07-16T03:41:02.372Z,49.19
2018-07-16T03:41:33.554Z,48.91
2018-07-16T03:42:04.744Z,48.35
2018-07-16T03:42:35.933Z,48.69
2018-07-16T03:43:07.167Z,48.24
2018-07-16T03:43:38.351Z,48.17
2018-07-16T03:44:09.521Z,47.74
2018-07-16T03:44:40.765Z,47.81
2018-07-16T03:45:12.070Z,47.81
2018-07-16T03:45:43.321Z,48.45
2018-07-16T03:46:14.562Z,48.38
2018-07-16T03:46:45.797Z,48.24
2018-07-16T03:47:17.098Z,48.23
2018-07-16T03:47:48.334Z,47.38
2018-07-16T03:49:10.606Z,48.10
2018-07-16T03:49:41.861Z,46.94
2018-07-16T03:50:13.155Z,46.27
2018-07-16T03:50:44.336Z,47.50
2018-07-16T03:51:15.626Z,47.09
2018-07-16T03:51:46.811Z,46.90
2018-07-16T03:52:18.041Z,46.50
2018-07-16T03:52:49.236Z,46.78
2018-07-16T03:53:20.423Z,47.47
2018-07-16T03:53:51.620Z,46.42
2018-07-16T03:54:22.805Z,46.34
2018-07-16T03:54:54.004Z,46.51
2018-07-16T03:55:25.177Z,46.77
2018-07-16T03:55:56.459Z,46.02
2018-07-16T03:56:27.698Z,46.06
2018-07-16T03:56:58.880Z,46.44
2018-07-16T03:57:30.107Z,45.90
2018-07-16T03:58:01.346Z,46.34
2018-07-16T03:58:32.528Z,45.91
2018-07-16T03:59:03.719Z,47.28
2018-07-16T03:59:34.975Z,46.21
2018-07-16T04:00:06.200Z,46.24
2018-07-16T04:00:37.429Z,46.41
2018-07-16T04:01:08.665Z,47.81
2018-07-16T04:01:40.137Z,46.86
2018-07-16T04:02:11.245Z,46.79
2018-07-16T04:02:42.424Z,46.79
2018-07-16T04:03:13.612Z,47.51
2018-07-16T04:03:44.855Z,47.42
2018-07-16T04:04:16.043Z,47.25
2018-07-16T04:04:47.335Z,47.97
2018-07-16T04:05:18.540Z,47.66
2018-07-16T04:05:49.716Z,48.36
2018-07-16T04:06:20.884Z,48.73
2018-07-16T04:06:52.169Z,48.40
2018-07-16T04:07:23.356Z,49.87
2018-07-16T04:07:54.628Z,49.96
2018-07-16T04:08:25.887Z,50.13
2018-07-16T04:08:57.152Z,51.39
2018-07-16T04:09:28.337Z,51.08
2018-07-16T04:09:59.598Z,51.71
2018-07-16T04:10:30.772Z,51.93
2018-07-16T04:11:02.030Z,52.02
2018-07-16T04:11:33.728Z,51.56
2018-07-16T04:12:04.910Z,51.34
2018-07-16T04:12:36.141Z,51.22
2018-07-16T04:13:07.429Z,50.89
2018-07-16T04:13:38.658Z,50.69
2018-07-16T04:14:09.848Z,50.15
2018-07-16T04:14:41.068Z,48.88
2018-07-16T04:15:12.961Z,48.89
2018-07-16T04:15:44.208Z,48.72
2018-07-16T04:16:15.395Z,47.64
2018-07-16T04:16:46.657Z,47.45
2018-07-16T04:17:17.905Z,48.41
2018-07-16T04:17:49.093Z,47.92
2018-07-16T04:18:20.320Z,47.92
2018-07-16T04:18:51.562Z,48.79
2018-07-16T04:19:23.777Z,48.73
2018-07-16T04:19:54.973Z,49.63
2018-07-16T04:20:26.159Z,50.39
2018-07-16T04:20:57.388Z,50.50
2018-07-16T04:21:28.580Z,50.63
2018-07-16T04:21:59.756Z,49.57
2018-07-16T04:22:31.189Z,50.00
2018-07-16T04:23:02.375Z,49.88
2018-07-16T04:23:33.561Z,48.52
2018-07-16T04:24:04.729Z,48.70
2018-07-16T04:24:36.049Z,47.95
2018-07-16T04:25:07.240Z,47.92
2018-07-16T04:25:38.414Z,48.02
2018-07-16T04:26:09.593Z,48.24
2018-07-16T04:26:40.788Z,47.38
2018-07-16T04:27:12.049Z,48.14
2018-07-16T04:27:43.279Z,48.54
2018-07-16T04:28:14.457Z,48.81
2018-07-16T04:28:45.718Z,49.21
2018-07-16T04:29:16.957Z,49.85
2018-07-16T04:29:49.215Z,49.04
2018-07-16T04:30:20.384Z,49.34
2018-07-16T04:30:51.578Z,49.22
2018-07-16T04:31:22.800Z,48.68
2018-07-16T04:31:53.984Z,49.35
2018-07-16T04:32:25.170Z,48.85
2018-07-16T04:32:56.407Z,48.80
2018-07-16T04:33:27.597Z,49.40
2018-07-16T04:33:58.780Z,50.13
2018-07-16T04:34:30.660Z,49.63
2018-07-16T04:35:01.897Z,49.49
2018-07-16T04:35:33.086Z,49.25
2018-07-16T04:36:04.309Z,49.38
2018-07-16T04:36:35.542Z,48.94
2018-07-16T04:37:06.724Z,48.38
2018-07-16T04:37:37.980Z,49.09
2018-07-16T04:38:09.160Z,48.46
2018-07-16T04:38:40.397Z,47.79
2018-07-16T04:39:11.626Z,47.13
2018-07-16T04:39:42.826Z,47.04
2018-07-16T04:40:14.052Z,47.45
2018-07-16T04:40:45.281Z,47.01
2018-07-16T04:41:16.473Z,45.90
2018-07-16T04:41:47.653Z,47.44
2018-07-16T04:42:18.840Z,47.90
2018-07-16T04:42:51.151Z,47.25
2018-07-16T04:43:22.393Z,48.07
2018-07-16T04:43:53.582Z,48.15
2018-07-16T04:44:24.827Z,47.89
2018-07-16T04:44:56.027Z,49.49
2018-07-16T04:45:27.225Z,48.95
2018-07-16T04:45:58.402Z,49.09
2018-07-16T04:46:29.572Z,49.74
2018-07-16T04:47:00.767Z,50.01
2018-07-16T04:47:31.951Z,49.90
2018-07-16T04:48:03.189Z,51.05
2018-07-16T04:48:34.401Z,51.07
2018-07-16T04:49:05.593Z,51.10
2018-07-16T04:49:36.772Z,51.28
2018-07-16T04:50:07.956Z,50.81
2018-07-16T04:50:39.182Z,50.55
2018-07-16T04:51:10.368Z,50.87
2018-07-16T04:51:41.557Z,51.21
2018-07-16T04:52:12.793Z,50.90
2018-07-16T04:52:43.972Z,49.74
2018-07-16T04:53:15.153Z,49.64
2018-07-16T04:53:46.334Z,48.90
2018-07-16T04:54:18.244Z,49.15
2018-07-16T04:54:49.426Z,49.43
2018-07-16T04:55:20.653Z,48.76
2018-07-16T04:55:51.842Z,48.82
2018-07-16T04:56:23.017Z,49.18
2018-07-16T04:56:55.042Z,48.42
2018-07-16T04:57:26.235Z,48.56
2018-07-16T04:57:57.420Z,49.21
2018-07-16T04:58:28.597Z,47.83
2018-07-16T04:58:59.772Z,47.75
2018-07-16T04:59:31.045Z,47.45
2018-07-16T05:00:02.288Z,46.27
2018-07-16T05:00:33.525Z,45.30
2018-07-16T05:01:05.401Z,44.42
2018-07-16T05:01:36.590Z,43.86
2018-07-16T05:02:07.837Z,43.63
2018-07-16T05:02:39.075Z,43.52
2018-07-16T05:03:10.349Z,42.84
2018-07-16T05:03:41.589Z,42.52
2018-07-16T05:04:12.781Z,42.09
2018-07-16T05:04:43.971Z,42.56
2018-07-16T05:05:15.152Z,41.63
2018-07-16T05:05:46.405Z,41.57
2018-07-16T05:06:18.830Z,41.21
2018-07-16T05:06:50.013Z,40.89
2018-07-16T05:07:21.250Z,40.42
2018-07-16T05:07:52.412Z,40.17
2018-07-16T05:08:23.640Z,39.79
2018-07-16T05:08:54.860Z,39.42
2018-07-16T05:09:26.041Z,39.88
2018-07-16T05:09:57.236Z,39.18
2018-07-16T05:10:28.555Z,39.46
2018-07-16T05:10:59.736Z,38.99
2018-07-16T05:11:31.515Z,39.37
2018-07-16T05:12:02.785Z,39.28
2018-07-16T05:12:34.021Z,39.25
2018-07-16T05:13:05.209Z,39.74
2018-07-16T05:13:36.389Z,39.69
2018-07-16T05:14:07.777Z,39.13
2018-07-16T05:14:39.033Z,39.05
2018-07-16T05:15:10.275Z,39.07
2018-07-16T05:15:41.553Z,39.08
2018-07-16T05:16:12.743Z,39.14
2018-07-16T05:16:43.984Z,39.28
2018-07-16T05:17:15.308Z,39.38
2018-07-16T05:17:47.248Z,38.86
2018-07-16T05:18:18.510Z,38.69
2018-07-16T05:18:49.653Z,38.57
2018-07-16T05:19:20.877Z,38.88
2018-07-16T05:19:52.128Z,38.75
2018-07-16T05:20:23.321Z,39.22
2018-07-16T05:20:54.540Z,38.82
2018-07-16T05:21:25.708Z,37.76
2018-07-16T05:21:56.872Z,38.16
2018-07-16T05:22:28.045Z,38.86
2018-07-16T05:22:59.274Z,38.60
2018-07-16T05:23:30.460Z,38.12
2018-07-16T05:24:01.641Z,38.00
2018-07-16T05:24:32.907Z,38.10
2018-07-16T05:25:04.087Z,37.72
2018-07-16T05:25:35.252Z,38.39
2018-07-16T05:26:06.460Z,37.88
2018-07-16T05:26:37.689Z,37.92
2018-07-16T05:27:08.921Z,37.83
2018-07-16T05:27:40.110Z,37.47
2018-07-16T05:28:11.312Z,37.40
2018-07-16T05:28:42.488Z,36.77
2018-07-16T05:29:13.700Z,37.29
2018-07-16T05:29:44.931Z,37.54
2018-07-16T05:30:16.120Z,37.63
2018-07-16T05:30:47.308Z,37.48
2018-07-16T05:31:18.492Z,37.45
2018-07-16T05:31:50.063Z,37.51
2018-07-16T05:32:21.322Z,37.23
2018-07-16T05:32:52.438Z,37.16
2018-07-16T05:33:23.613Z,37.87
2018-07-16T05:33:54.788Z,37.83
2018-07-16T05:34:25.970Z,38.24
2018-07-16T05:34:57.184Z,38.37
2018-07-16T05:35:28.400Z,38.62
2018-07-16T05:35:59.576Z,38.80
2018-07-16T05:36:30.845Z,39.26
2018-07-16T05:37:02.076Z,39.57
2018-07-16T05:37:33.315Z,39.10
2018-07-16T05:38:04.532Z,39.46
2018-07-16T05:38:35.749Z,38.85
2018-07-16T05:39:07.069Z,39.59
2018-07-16T05:39:38.282Z,39.86
2018-07-16T05:40:09.505Z,39.93
2018-07-16T05:40:40.703Z,39.78
2018-07-16T05:41:11.884Z,40.18
2018-07-16T05:41:43.123Z,40.63
2018-07-16T05:42:14.331Z,40.96
2018-07-16T05:42:45.588Z,40.65
2018-07-16T05:43:16.761Z,40.51
2018-07-16T05:43:47.976Z,40.37
2018-07-16T05:44:19.154Z,40.00
2018-07-16T05:44:50.339Z,40.01
2018-07-16T05:45:21.520Z,40.08
2018-07-16T05:45:52.743Z,39.35
2018-07-16T05:46:23.927Z,39.89
2018-07-16T05:46:55.154Z,40.16
2018-07-16T05:47:26.336Z,40.14
2018-07-16T05:47:57.557Z,40.55
2018-07-16T05:48:28.751Z,40.59
2018-07-16T05:49:00.026Z,40.72
2018-07-16T05:49:31.253Z,41.14
2018-07-16T05:50:02.426Z,41.65
2018-07-16T05:50:33.607Z,41.64
2018-07-16T05:51:04.788Z,41.88
2018-07-16T05:51:40.772Z,41.87
2018-07-16T05:52:12.015Z,42.01
2018-07-16T05:52:43.204Z,42.08
2018-07-16T05:53:14.379Z,42.42
2018-07-16T05:53:45.587Z,41.97
2018-07-16T05:54:16.797Z,42.51
2018-07-16T05:54:48.005Z,42.42
2018-07-16T05:55:19.232Z,42.51
2018-07-16T05:55:50.642Z,42.33
2018-07-16T05:56:21.869Z,42.49
2018-07-16T05:56:53.055Z,43.10
2018-07-16T05:57:24.322Z,42.79
2018-07-16T05:57:55.562Z,42.42
2018-07-16T05:58:26.814Z,42.70
2018-07-16T05:58:58.101Z,42.15
2018-07-16T05:59:29.353Z,41.85
2018-07-16T06:00:00.621Z,41.47
2018-07-16T06:00:31.812Z,42.06
2018-07-16T06:01:02.993Z,42.52
2018-07-16T06:01:35.555Z,42.49
2018-07-16T06:02:06.750Z,42.13
2018-07-16T06:02:37.958Z,42.57
2018-07-16T06:03:13.206Z,42.64
2018-07-16T06:03:44.442Z,42.80
2018-07-16T06:04:15.630Z,42.54
2018-07-16T06:04:47.086Z,42.48
2018-07-16T06:05:18.464Z,41.92
2018-07-16T06:05:49.664Z,41.64
2018-07-16T06:06:20.848Z,41.95
2018-07-16T06:06:52.047Z,41.79
2018-07-16T06:07:23.245Z,41.74
2018-07-16T06:07:54.440Z,41.83
2018-07-16T06:08:25.713Z,41.92
2018-07-16T06:08:56.944Z,41.74
2018-07-16T06:09:28.179Z,41.17
2018-07-16T06:09:59.385Z,41.38
2018-07-16T06:10:30.594Z,41.56
2018-07-16T06:11:01.818Z,41.04
2018-07-16T06:11:33.025Z,41.97
2018-07-16T06:12:04.218Z,41.83
2018-07-16T06:12:35.394Z,42.43
2018-07-16T06:13:06.625Z,42.19
2018-07-16T06:13:37.909Z,42.29
2018-07-16T06:14:09.099Z,42.13
2018-07-16T06:14:40.291Z,42.17
2018-07-16T06:15:11.469Z,43.03
2018-07-16T06:15:42.727Z,42.81
2018-07-16T06:16:13.904Z,42.78
2018-07-16T06:16:45.147Z,42.43
2018-07-16T06:17:16.368Z,42.26
2018-07-16T06:17:47.585Z,42.11
2018-07-16T06:18:18.825Z,41.68
2018-07-16T06:18:51.516Z,42.13
2018-07-16T06:19:22.771Z,41.83
2018-07-16T06:19:53.943Z,42.08
2018-07-16T06:20:25.128Z,42.21
2018-07-16T06:20:56.357Z,41.73
2018-07-16T06:21:27.544Z,41.71
2018-07-16T06:21:59.411Z,41.34
2018-07-16T06:22:30.634Z,41.91
2018-07-16T06:23:01.847Z,42.75
2018-07-16T06:23:33.030Z,42.78
2018-07-16T06:24:04.333Z,43.03
2018-07-16T06:24:35.477Z,42.66
2018-07-16T06:25:06.694Z,43.00
2018-07-16T06:25:37.886Z,42.93
2018-07-16T06:26:09.057Z,42.69
2018-07-16T06:26:40.314Z,42.54
2018-07-16T06:27:11.605Z,42.17
2018-07-16T06:27:42.784Z,42.19
2018-07-16T06:28:13.968Z,42.36
2018-07-16T06:28:45.563Z,41.77
2018-07-16T06:29:16.782Z,41.57
2018-07-16T06:29:47.955Z,42.07
2018-07-16T06:30:19.129Z,41.15
2018-07-16T06:30:50.317Z,41.94
2018-07-16T06:31:21.516Z,41.54
2018-07-16T06:31:52.781Z,41.54
2018-07-16T06:32:23.990Z,41.74
2018-07-16T06:32:55.175Z,41.39
2018-07-16T06:33:26.517Z,41.62
2018-07-16T06:33:57.745Z,41.47
2018-07-16T06:34:28.978Z,41.50
2018-07-16T06:35:00.160Z,40.80
2018-07-16T06:35:31.340Z,41.37
2018-07-16T06:36:02.535Z,41.57
2018-07-16T06:36:33.754Z,41.85
2018-07-16T06:37:04.982Z,42.42
2018-07-16T06:37:36.386Z,41.40
2018-07-16T06:38:07.632Z,41.56
2018-07-16T06:38:38.871Z,42.31
2018-07-16T06:39:13.599Z,42.66
2018-07-16T06:39:44.923Z,42.29
2018-07-16T06:40:16.228Z,41.55
2018-07-16T06:40:49.098Z,40.99
2018-07-16T06:41:20.402Z,42.20
2018-07-16T06:41:51.445Z,42.62
2018-07-16T06:42:22.677Z,43.06
2018-07-16T06:42:53.878Z,43.09
2018-07-16T06:43:25.091Z,43.16
2018-07-16T06:43:56.310Z,43.87
2018-07-16T06:44:27.493Z,43.06
2018-07-16T06:44:58.741Z,42.97
2018-07-16T06:45:29.943Z,43.20
2018-07-16T06:46:01.129Z,43.19
2018-07-16T06:46:32.496Z,43.04
2018-07-16T06:47:03.686Z,42.86